Pleasant Grove, Minnesota
Current Conditions -  °F | °C
As of 11:28 AM on Sunday 23 Nov 2014 (Local Time) from KRST Reporting Station
Moderate Fog Moderate Fog  
Wind Chill: 44°   Ceiling: 200
Heat Index: 49°   Visibility: 0.25mi
Dew Point: 49°   Wind: 12mph
Humidity: 100%   Direction: 190°S
Pressure: 29.46"   Gusts: NA
Location:  43.8884°N, 92.383°W
Report Text: KRST 231728Z 19010KT 1/4SM R31/1800V2200FT FG VV002 09/09 A2946 RMK AO2 TWR VIS 1/4 RAE01 P0001 T00940094
Loading
Personal Weather Stations






























Interactive Weather Map New forecast layout! Learn more

10-Day Weather Forecast

Advertisements
Track Severe Weather on mobile